sensor_id;sensor_type;location;lat;lon;timestamp;P1;durP1;ratioP1;P2;durP2;ratioP2
34491;SDS011;20737;49.908;8.126;2023-05-10T00:02:07;0.50;;;0.50;;
34491;SDS011;20737;49.908;8.126;2023-05-10T00:04:34;0.60;;;0.60;;
34491;SDS011;20737;49.908;8.126;2023-05-10T00:07:00;0.70;;;0.52;;
34491;SDS011;20737;49.908;8.126;2023-05-10T00:09:29;0.73;;;0.68;;
34491;SDS011;20737;49.908;8.126;2023-05-10T00:11:55;1.17;;;0.43;;
34491;SDS011;20737;49.908;8.126;2023-05-10T00:14:23;0.63;;;0.50;;
34491;SDS011;20737;49.908;8.126;2023-05-10T00:16:50;0.30;;;0.30;;
34491;SDS011;20737;49.908;8.126;2023-05-10T00:19:16;0.47;;;0.47;;
34491;SDS011;20737;49.908;8.126;2023-05-10T00:21:43;0.30;;;0.30;;
34491;SDS011;20737;49.908;8.126;2023-05-10T00:24:10;0.65;;;0.40;;
34491;SDS011;20737;49.908;8.126;2023-05-10T00:26:38;0.30;;;0.30;;
34491;SDS011;20737;49.908;8.126;2023-05-10T00:29:05;2.25;;;0.35;;
34491;SDS011;20737;49.908;8.126;2023-05-10T00:31:32;0.30;;;0.30;;
34491;SDS011;20737;49.908;8.126;2023-05-10T00:33:59;2.30;;;0.50;;
34491;SDS011;20737;49.908;8.126;2023-05-10T00:36:26;1.90;;;0.40;;
34491;SDS011;20737;49.908;8.126;2023-05-10T00:38:53;2.28;;;0.50;;
34491;SDS011;20737;49.908;8.126;2023-05-10T00:41:19;0.32;;;0.32;;
34491;SDS011;20737;49.908;8.126;2023-05-10T00:43:48;1.67;;;0.40;;
34491;SDS011;20737;49.908;8.126;2023-05-10T00:46:15;1.58;;;0.40;;
34491;SDS011;20737;49.908;8.126;2023-05-10T00:48:42;0.40;;;0.40;;
34491;SDS011;20737;49.908;8.126;2023-05-10T00:51:10;0.32;;;0.32;;
34491;SDS011;20737;49.908;8.126;2023-05-10T00:53:39;0.32;;;0.32;;
34491;SDS011;20737;49.908;8.126;2023-05-10T00:56:07;1.85;;;0.45;;
34491;SDS011;20737;49.908;8.126;2023-05-10T00:58:34;0.57;;;0.40;;
34491;SDS011;20737;49.908;8.126;2023-05-10T01:01:03;0.30;;;0.30;;
34491;SDS011;20737;49.908;8.126;2023-05-10T01:03:31;0.40;;;0.40;;
34491;SDS011;20737;49.908;8.126;2023-05-10T01:05:58;1.05;;;0.38;;
34491;SDS011;20737;49.908;8.126;2023-05-10T01:08:28;2.78;;;0.40;;
34491;SDS011;20737;49.908;8.126;2023-05-10T01:10:55;2.38;;;0.40;;
34491;SDS011;20737;49.908;8.126;2023-05-10T01:13:29;1.27;;;0.40;;
34491;SDS011;20737;49.908;8.126;2023-05-10T01:15:59;0.30;;;0.30;;
34491;SDS011;20737;49.908;8.126;2023-05-10T01:18:28;0.40;;;0.40;;
34491;SDS011;20737;49.908;8.126;2023-05-10T01:20:59;0.40;;;0.40;;
34491;SDS011;20737;49.908;8.126;2023-05-10T01:23:42;0.65;;;0.40;;
34491;SDS011;20737;49.908;8.126;2023-05-10T01:29:33;2.92;;;0.50;;
34491;SDS011;20737;49.908;8.126;2023-05-10T01:32:26;0.40;;;0.40;;
34491;SDS011;20737;49.908;8.126;2023-05-10T01:35:00;2.65;;;0.30;;
34491;SDS011;20737;49.908;8.126;2023-05-10T01:37:31;0.38;;;0.38;;
34491;SDS011;20737;49.908;8.126;2023-05-10T01:40:06;0.30;;;0.30;;
34491;SDS011;20737;49.908;8.126;2023-05-10T01:42:40;2.55;;;0.50;;
34491;SDS011;20737;49.908;8.126;2023-05-10T01:45:14;0.90;;;0.40;;
34491;SDS011;20737;49.908;8.126;2023-05-10T01:47:52;0.40;;;0.40;;
34491;SDS011;20737;49.908;8.126;2023-05-10T01:50:26;1.45;;;0.45;;
34491;SDS011;20737;49.908;8.126;2023-05-10T01:52:57;0.30;;;0.30;;
34491;SDS011;20737;49.908;8.126;2023-05-10T01:55:25;0.63;;;0.40;;
34491;SDS011;20737;49.908;8.126;2023-05-10T01:57:58;0.43;;;0.43;;
34491;SDS011;20737;49.908;8.126;2023-05-10T02:00:28;0.45;;;0.45;;
34491;SDS011;20737;49.908;8.126;2023-05-10T02:02:57;3.75;;;0.80;;
34491;SDS011;20737;49.908;8.126;2023-05-10T02:05:27;0.98;;;0.70;;
34491;SDS011;20737;49.908;8.126;2023-05-10T02:07:56;1.13;;;0.70;;
34491;SDS011;20737;49.908;8.126;2023-05-10T02:10:24;0.60;;;0.50;;
34491;SDS011;20737;49.908;8.126;2023-05-10T02:12:51;2.53;;;0.73;;
34491;SDS011;20737;49.908;8.126;2023-05-10T02:15:24;0.75;;;0.50;;
34491;SDS011;20737;49.908;8.126;2023-05-10T02:17:52;3.63;;;0.60;;
34491;SDS011;20737;49.908;8.126;2023-05-10T02:20:22;0.50;;;0.50;;
34491;SDS011;20737;49.908;8.126;2023-05-10T02:22:51;0.90;;;0.77;;
34491;SDS011;20737;49.908;8.126;2023-05-10T02:25:20;0.77;;;0.60;;
34491;SDS011;20737;49.908;8.126;2023-05-10T02:27:49;2.22;;;0.60;;
34491;SDS011;20737;49.908;8.126;2023-05-10T02:30:17;6.03;;;0.75;;
34491;SDS011;20737;49.908;8.126;2023-05-10T02:32:45;1.75;;;0.50;;
34491;SDS011;20737;49.908;8.126;2023-05-10T02:35:14;2.08;;;0.50;;
34491;SDS011;20737;49.908;8.126;2023-05-10T02:37:46;1.13;;;0.52;;
34491;SDS011;20737;49.908;8.126;2023-05-10T02:40:13;0.57;;;0.55;;
34491;SDS011;20737;49.908;8.126;2023-05-10T02:42:43;0.50;;;0.50;;
34491;SDS011;20737;49.908;8.126;2023-05-10T02:45:14;1.70;;;0.70;;
34491;SDS011;20737;49.908;8.126;2023-05-10T02:47:44;0.73;;;0.60;;
34491;SDS011;20737;49.908;8.126;2023-05-10T02:50:10;0.45;;;0.45;;
34491;SDS011;20737;49.908;8.126;2023-05-10T02:52:39;0.55;;;0.55;;
34491;SDS011;20737;49.908;8.126;2023-05-10T02:55:11;1.55;;;0.60;;
34491;SDS011;20737;49.908;8.126;2023-05-10T02:57:43;0.68;;;0.68;;
34491;SDS011;20737;49.908;8.126;2023-05-10T03:00:15;0.60;;;0.60;;
34491;SDS011;20737;49.908;8.126;2023-05-10T03:02:41;0.90;;;0.75;;
34491;SDS011;20737;49.908;8.126;2023-05-10T03:05:08;0.80;;;0.80;;
34491;SDS011;20737;49.908;8.126;2023-05-10T03:07:35;0.60;;;0.60;;
34491;SDS011;20737;49.908;8.126;2023-05-10T03:10:02;0.80;;;0.80;;
34491;SDS011;20737;49.908;8.126;2023-05-10T03:12:37;1.73;;;0.82;;
34491;SDS011;20737;49.908;8.126;2023-05-10T03:15:11;3.22;;;0.70;;
34491;SDS011;20737;49.908;8.126;2023-05-10T03:17:45;1.00;;;0.90;;
34491;SDS011;20737;49.908;8.126;2023-05-10T03:20:16;0.80;;;0.80;;
34491;SDS011;20737;49.908;8.126;2023-05-10T03:22:51;2.25;;;0.70;;
34491;SDS011;20737;49.908;8.126;2023-05-10T03:25:21;0.80;;;0.77;;
34491;SDS011;20737;49.908;8.126;2023-05-10T03:27:51;0.90;;;0.68;;
34491;SDS011;20737;49.908;8.126;2023-05-10T03:30:18;2.65;;;0.80;;
34491;SDS011;20737;49.908;8.126;2023-05-10T03:32:46;0.98;;;0.98;;
34491;SDS011;20737;49.908;8.126;2023-05-10T03:35:14;2.03;;;1.20;;
34491;SDS011;20737;49.908;8.126;2023-05-10T03:37:49;1.92;;;1.00;;
34491;SDS011;20737;49.908;8.126;2023-05-10T03:40:15;1.13;;;1.02;;
34491;SDS011;20737;49.908;8.126;2023-05-10T03:42:42;1.20;;;1.05;;
34491;SDS011;20737;49.908;8.126;2023-05-10T03:45:10;1.67;;;1.10;;
34491;SDS011;20737;49.908;8.126;2023-05-10T03:47:37;0.95;;;0.95;;
34491;SDS011;20737;49.908;8.126;2023-05-10T03:50:05;1.33;;;1.10;;
34491;SDS011;20737;49.908;8.126;2023-05-10T03:52:32;1.45;;;1.20;;
34491;SDS011;20737;49.908;8.126;2023-05-10T03:54:59;1.27;;;1.15;;
34491;SDS011;20737;49.908;8.126;2023-05-10T03:57:27;2.05;;;0.95;;
34491;SDS011;20737;49.908;8.126;2023-05-10T03:59:54;1.40;;;1.20;;
34491;SDS011;20737;49.908;8.126;2023-05-10T04:02:22;0.98;;;0.90;;
34491;SDS011;20737;49.908;8.126;2023-05-10T04:04:49;2.13;;;0.80;;
34491;SDS011;20737;49.908;8.126;2023-05-10T04:07:16;4.63;;;1.13;;
34491;SDS011;20737;49.908;8.126;2023-05-10T04:09:43;1.80;;;0.90;;
34491;SDS011;20737;49.908;8.126;2023-05-10T04:12:10;2.47;;;1.10;;
34491;SDS011;20737;49.908;8.126;2023-05-10T04:14:39;0.93;;;0.93;;
34491;SDS011;20737;49.908;8.126;2023-05-10T04:17:06;1.48;;;1.00;;
34491;SDS011;20737;49.908;8.126;2023-05-10T04:19:34;2.13;;;1.40;;
34491;SDS011;20737;49.908;8.126;2023-05-10T04:22:01;2.88;;;1.38;;
34491;SDS011;20737;49.908;8.126;2023-05-10T04:24:28;1.48;;;1.00;;
34491;SDS011;20737;49.908;8.126;2023-05-10T04:26:55;1.40;;;1.30;;
34491;SDS011;20737;49.908;8.126;2023-05-10T04:29:22;1.75;;;1.50;;
34491;SDS011;20737;49.908;8.126;2023-05-10T04:31:49;1.73;;;1.63;;
34491;SDS011;20737;49.908;8.126;2023-05-10T04:34:16;2.08;;;1.70;;
34491;SDS011;20737;49.908;8.126;2023-05-10T04:36:45;5.60;;;1.52;;
34491;SDS011;20737;49.908;8.126;2023-05-10T04:39:11;3.08;;;1.90;;
34491;SDS011;20737;49.908;8.126;2023-05-10T04:41:38;6.07;;;2.03;;
34491;SDS011;20737;49.908;8.126;2023-05-10T04:44:07;2.15;;;1.30;;
34491;SDS011;20737;49.908;8.126;2023-05-10T04:46:33;1.77;;;1.27;;
34491;SDS011;20737;49.908;8.126;2023-05-10T04:49:00;3.80;;;1.50;;
34491;SDS011;20737;49.908;8.126;2023-05-10T04:51:29;2.65;;;1.63;;
34491;SDS011;20737;49.908;8.126;2023-05-10T04:53:57;4.68;;;1.80;;
34491;SDS011;20737;49.908;8.126;2023-05-10T04:56:24;2.58;;;1.77;;
34491;SDS011;20737;49.908;8.126;2023-05-10T04:58:51;3.20;;;1.67;;
34491;SDS011;20737;49.908;8.126;2023-05-10T05:01:17;1.65;;;1.55;;
34491;SDS011;20737;49.908;8.126;2023-05-10T05:03:44;2.05;;;1.42;;
34491;SDS011;20737;49.908;8.126;2023-05-10T05:06:11;5.45;;;1.80;;
34491;SDS011;20737;49.908;8.126;2023-05-10T05:08:41;2.67;;;1.83;;
34491;SDS011;20737;49.908;8.126;2023-05-10T05:11:09;4.38;;;2.05;;
34491;SDS011;20737;49.908;8.126;2023-05-10T05:13:36;1.75;;;1.38;;
34491;SDS011;20737;49.908;8.126;2023-05-10T05:16:04;3.88;;;1.40;;
34491;SDS011;20737;49.908;8.126;2023-05-10T05:18:31;2.95;;;1.65;;
34491;SDS011;20737;49.908;8.126;2023-05-10T05:20:58;2.65;;;1.67;;
34491;SDS011;20737;49.908;8.126;2023-05-10T05:23:24;1.92;;;1.73;;
34491;SDS011;20737;49.908;8.126;2023-05-10T05:25:52;4.13;;;1.55;;
34491;SDS011;20737;49.908;8.126;2023-05-10T05:28:20;4.43;;;1.67;;
34491;SDS011;20737;49.908;8.126;2023-05-10T05:30:47;3.65;;;1.38;;
34491;SDS011;20737;49.908;8.126;2023-05-10T05:33:14;6.93;;;1.58;;
34491;SDS011;20737;49.908;8.126;2023-05-10T05:35:41;1.40;;;1.30;;
34491;SDS011;20737;49.908;8.126;2023-05-10T05:38:12;5.35;;;1.60;;
34491;SDS011;20737;49.908;8.126;2023-05-10T05:40:39;3.30;;;1.50;;
34491;SDS011;20737;49.908;8.126;2023-05-10T05:43:06;4.00;;;1.52;;
34491;SDS011;20737;49.908;8.126;2023-05-10T05:45:34;3.70;;;1.75;;
34491;SDS011;20737;49.908;8.126;2023-05-10T05:48:00;3.38;;;1.45;;
34491;SDS011;20737;49.908;8.126;2023-05-10T05:50:27;3.22;;;1.52;;
34491;SDS011;20737;49.908;8.126;2023-05-10T05:52:54;4.07;;;1.52;;
34491;SDS011;20737;49.908;8.126;2023-05-10T05:55:22;2.13;;;1.52;;
34491;SDS011;20737;49.908;8.126;2023-05-10T05:57:49;3.95;;;1.52;;
34491;SDS011;20737;49.908;8.126;2023-05-10T06:00:18;4.85;;;1.40;;
34491;SDS011;20737;49.908;8.126;2023-05-10T06:02:47;4.70;;;1.27;;
34491;SDS011;20737;49.908;8.126;2023-05-10T06:05:14;1.73;;;1.30;;
34491;SDS011;20737;49.908;8.126;2023-05-10T06:07:41;1.48;;;1.30;;
34491;SDS011;20737;49.908;8.126;2023-05-10T06:10:07;2.10;;;1.52;;
34491;SDS011;20737;49.908;8.126;2023-05-10T06:12:36;1.65;;;1.05;;
34491;SDS011;20737;49.908;8.126;2023-05-10T06:15:03;3.15;;;1.00;;
34491;SDS011;20737;49.908;8.126;2023-05-10T06:17:30;3.25;;;1.20;;
34491;SDS011;20737;49.908;8.126;2023-05-10T06:19:58;3.67;;;1.63;;
34491;SDS011;20737;49.908;8.126;2023-05-10T06:22:25;3.92;;;1.52;;
34491;SDS011;20737;49.908;8.126;2023-05-10T06:24:51;2.75;;;1.30;;
34491;SDS011;20737;49.908;8.126;2023-05-10T06:27:18;2.90;;;1.17;;
34491;SDS011;20737;49.908;8.126;2023-05-10T06:29:45;2.03;;;1.08;;
34491;SDS011;20737;49.908;8.126;2023-05-10T06:32:12;3.85;;;1.42;;
34491;SDS011;20737;49.908;8.126;2023-05-10T06:34:38;2.00;;;1.00;;
34491;SDS011;20737;49.908;8.126;2023-05-10T06:37:06;2.42;;;0.90;;
34491;SDS011;20737;49.908;8.126;2023-05-10T06:39:33;2.22;;;1.40;;
34491;SDS011;20737;49.908;8.126;2023-05-10T06:42:00;2.08;;;1.05;;
34491;SDS011;20737;49.908;8.126;2023-05-10T06:44:29;2.58;;;1.20;;
34491;SDS011;20737;49.908;8.126;2023-05-10T06:46:56;1.92;;;1.20;;
34491;SDS011;20737;49.908;8.126;2023-05-10T06:49:23;1.55;;;1.17;;
34491;SDS011;20737;49.908;8.126;2023-05-10T06:51:49;1.55;;;1.10;;
34491;SDS011;20737;49.908;8.126;2023-05-10T06:54:18;2.80;;;1.30;;
34491;SDS011;20737;49.908;8.126;2023-05-10T06:56:44;2.20;;;1.38;;
34491;SDS011;20737;49.908;8.126;2023-05-10T06:59:11;2.30;;;1.20;;
34491;SDS011;20737;49.908;8.126;2023-05-10T07:01:38;2.25;;;1.20;;
34491;SDS011;20737;49.908;8.126;2023-05-10T07:04:05;2.25;;;1.15;;
34491;SDS011;20737;49.908;8.126;2023-05-10T07:06:33;3.03;;;1.30;;
34491;SDS011;20737;49.908;8.126;2023-05-10T07:09:01;1.65;;;1.00;;
34491;SDS011;20737;49.908;8.126;2023-05-10T07:11:29;1.33;;;0.80;;
34491;SDS011;20737;49.908;8.126;2023-05-10T07:13:55;2.20;;;1.20;;
34491;SDS011;20737;49.908;8.126;2023-05-10T07:16:24;2.45;;;1.30;;
34491;SDS011;20737;49.908;8.126;2023-05-10T07:18:50;1.52;;;1.20;;
34491;SDS011;20737;49.908;8.126;2023-05-10T07:21:18;2.45;;;1.38;;
34491;SDS011;20737;49.908;8.126;2023-05-10T07:23:45;3.03;;;1.30;;
34491;SDS011;20737;49.908;8.126;2023-05-10T07:26:12;1.77;;;1.10;;
34491;SDS011;20737;49.908;8.126;2023-05-10T07:28:41;2.53;;;1.13;;
34491;SDS011;20737;49.908;8.126;2023-05-10T07:31:08;2.78;;;1.25;;
34491;SDS011;20737;49.908;8.126;2023-05-10T07:33:41;3.95;;;1.20;;
34491;SDS011;20737;49.908;8.126;2023-05-10T07:36:08;1.95;;;1.15;;
34491;SDS011;20737;49.908;8.126;2023-05-10T07:38:34;2.17;;;1.10;;
34491;SDS011;20737;49.908;8.126;2023-05-10T07:41:01;2.35;;;1.10;;
34491;SDS011;20737;49.908;8.126;2023-05-10T07:43:28;2.90;;;1.40;;
34491;SDS011;20737;49.908;8.126;2023-05-10T07:45:56;3.80;;;1.30;;
34491;SDS011;20737;49.908;8.126;2023-05-10T07:48:24;1.92;;;1.58;;
34491;SDS011;20737;49.908;8.126;2023-05-10T07:50:51;3.08;;;1.30;;
34491;SDS011;20737;49.908;8.126;2023-05-10T07:53:18;1.27;;;1.15;;
34491;SDS011;20737;49.908;8.126;2023-05-10T07:55:49;3.25;;;1.20;;
34491;SDS011;20737;49.908;8.126;2023-05-10T07:58:16;2.33;;;1.30;;
34491;SDS011;20737;49.908;8.126;2023-05-10T08:00:43;1.40;;;1.30;;
34491;SDS011;20737;49.908;8.126;2023-05-10T08:03:11;2.17;;;1.23;;
34491;SDS011;20737;49.908;8.126;2023-05-10T08:05:38;3.20;;;1.55;;
34491;SDS011;20737;49.908;8.126;2023-05-10T08:08:04;1.30;;;1.20;;
34491;SDS011;20737;49.908;8.126;2023-05-10T08:10:31;1.48;;;1.10;;
34491;SDS011;20737;49.908;8.126;2023-05-10T08:12:58;1.00;;;0.93;;
34491;SDS011;20737;49.908;8.126;2023-05-10T08:15:25;2.25;;;1.25;;
34491;SDS011;20737;49.908;8.126;2023-05-10T08:17:51;1.17;;;1.08;;
34491;SDS011;20737;49.908;8.126;2023-05-10T08:20:20;2.05;;;1.15;;
34491;SDS011;20737;49.908;8.126;2023-05-10T08:22:47;4.85;;;1.10;;
34491;SDS011;20737;49.908;8.126;2023-05-10T08:25:14;1.77;;;1.05;;
34491;SDS011;20737;49.908;8.126;2023-05-10T08:27:41;1.60;;;1.17;;
34491;SDS011;20737;49.908;8.126;2023-05-10T08:30:08;2.05;;;0.85;;
34491;SDS011;20737;49.908;8.126;2023-05-10T08:32:36;0.80;;;0.80;;
34491;SDS011;20737;49.908;8.126;2023-05-10T08:35:03;2.33;;;1.00;;
34491;SDS011;20737;49.908;8.126;2023-05-10T08:37:34;0.75;;;0.75;;
34491;SDS011;20737;49.908;8.126;2023-05-10T08:40:01;1.65;;;0.80;;
34491;SDS011;20737;49.908;8.126;2023-05-10T08:42:28;0.90;;;0.90;;
34491;SDS011;20737;49.908;8.126;2023-05-10T08:45:01;0.50;;;0.50;;
34491;SDS011;20737;49.908;8.126;2023-05-10T08:47:30;0.63;;;0.63;;
34491;SDS011;20737;49.908;8.126;2023-05-10T08:49:57;2.55;;;0.70;;
34491;SDS011;20737;49.908;8.126;2023-05-10T08:52:26;2.92;;;0.65;;
34491;SDS011;20737;49.908;8.126;2023-05-10T08:54:55;0.68;;;0.68;;
34491;SDS011;20737;49.908;8.126;2023-05-10T08:57:22;0.47;;;0.47;;
34491;SDS011;20737;49.908;8.126;2023-05-10T08:59:49;1.65;;;0.52;;
34491;SDS011;20737;49.908;8.126;2023-05-10T09:02:16;1.33;;;0.50;;
34491;SDS011;20737;49.908;8.126;2023-05-10T09:04:45;0.77;;;0.40;;
34491;SDS011;20737;49.908;8.126;2023-05-10T09:07:13;2.58;;;0.57;;
34491;SDS011;20737;49.908;8.126;2023-05-10T09:09:40;0.63;;;0.40;;
34491;SDS011;20737;49.908;8.126;2023-05-10T09:12:09;0.60;;;0.43;;
34491;SDS011;20737;49.908;8.126;2023-05-10T09:14:36;1.55;;;0.55;;
34491;SDS011;20737;49.908;8.126;2023-05-10T09:17:04;0.77;;;0.65;;
34491;SDS011;20737;49.908;8.126;2023-05-10T09:19:31;0.50;;;0.50;;
34491;SDS011;20737;49.908;8.126;2023-05-10T09:21:58;1.20;;;0.70;;
34491;SDS011;20737;49.908;8.126;2023-05-10T09:24:25;0.77;;;0.60;;
34491;SDS011;20737;49.908;8.126;2023-05-10T09:26:52;1.52;;;0.60;;
34491;SDS011;20737;49.908;8.126;2023-05-10T09:29:20;1.60;;;0.50;;
34491;SDS011;20737;49.908;8.126;2023-05-10T09:31:48;0.95;;;0.40;;
34491;SDS011;20737;49.908;8.126;2023-05-10T09:34:17;0.52;;;0.50;;
34491;SDS011;20737;49.908;8.126;2023-05-10T09:36:52;0.60;;;0.60;;
34491;SDS011;20737;49.908;8.126;2023-05-10T09:39:20;0.50;;;0.50;;
34491;SDS011;20737;49.908;8.126;2023-05-10T09:41:47;1.42;;;0.60;;
34491;SDS011;20737;49.908;8.126;2023-05-10T09:44:16;0.70;;;0.65;;
34491;SDS011;20737;49.908;8.126;2023-05-10T09:46:49;1.77;;;0.73;;
34491;SDS011;20737;49.908;8.126;2023-05-10T09:49:17;3.15;;;0.55;;
34491;SDS011;20737;49.908;8.126;2023-05-10T09:51:44;0.85;;;0.50;;
34491;SDS011;20737;49.908;8.126;2023-05-10T09:54:11;0.40;;;0.40;;
34491;SDS011;20737;49.908;8.126;2023-05-10T09:56:39;1.50;;;1.40;;
34491;SDS011;20737;49.908;8.126;2023-05-10T09:59:06;0.30;;;0.30;;
34491;SDS011;20737;49.908;8.126;2023-05-10T10:01:35;1.35;;;0.70;;
34491;SDS011;20737;49.908;8.126;2023-05-10T10:04:03;0.68;;;0.60;;
34491;SDS011;20737;49.908;8.126;2023-05-10T10:06:34;2.53;;;0.60;;
34491;SDS011;20737;49.908;8.126;2023-05-10T10:09:02;1.02;;;0.60;;
34491;SDS011;20737;49.908;8.126;2023-05-10T10:11:29;2.30;;;0.63;;
34491;SDS011;20737;49.908;8.126;2023-05-10T10:13:57;2.55;;;0.50;;
34491;SDS011;20737;49.908;8.126;2023-05-10T10:16:24;0.73;;;0.73;;
34491;SDS011;20737;49.908;8.126;2023-05-10T10:18:52;0.63;;;0.63;;
34491;SDS011;20737;49.908;8.126;2023-05-10T10:21:20;2.03;;;0.57;;
34491;SDS011;20737;49.908;8.126;2023-05-10T10:23:47;0.95;;;0.70;;
34491;SDS011;20737;49.908;8.126;2023-05-10T10:26:14;1.38;;;0.80;;
34491;SDS011;20737;49.908;8.126;2023-05-10T10:28:45;0.50;;;0.50;;
34491;SDS011;20737;49.908;8.126;2023-05-10T10:31:20;0.95;;;0.90;;
34491;SDS011;20737;49.908;8.126;2023-05-10T10:33:55;1.00;;;0.50;;
34491;SDS011;20737;49.908;8.126;2023-05-10T10:36:29;0.93;;;0.80;;
34491;SDS011;20737;49.908;8.126;2023-05-10T10:38:58;2.53;;;0.70;;
34491;SDS011;20737;49.908;8.126;2023-05-10T10:41:30;0.85;;;0.60;;
34491;SDS011;20737;49.908;8.126;2023-05-10T10:46:58;0.50;;;0.50;;
34491;SDS011;20737;49.908;8.126;2023-05-10T10:49:27;0.70;;;0.70;;
34491;SDS011;20737;49.908;8.126;2023-05-10T10:52:20;0.50;;;0.50;;
34491;SDS011;20737;49.908;8.126;2023-05-10T10:54:51;0.63;;;0.63;;
34491;SDS011;20737;49.908;8.126;2023-05-10T10:57:20;0.73;;;0.73;;
34491;SDS011;20737;49.908;8.126;2023-05-10T10:59:47;0.88;;;0.60;;
34491;SDS011;20737;49.908;8.126;2023-05-10T11:02:32;0.60;;;0.60;;
34491;SDS011;20737;49.908;8.126;2023-05-10T11:05:00;0.63;;;0.50;;
34491;SDS011;20737;49.908;8.126;2023-05-10T11:07:53;0.68;;;0.60;;
34491;SDS011;20737;49.908;8.126;2023-05-10T11:10:20;0.47;;;0.40;;
34491;SDS011;20737;49.908;8.126;2023-05-10T11:12:51;1.08;;;0.73;;
34491;SDS011;20737;49.908;8.126;2023-05-10T11:15:19;0.57;;;0.57;;
34491;SDS011;20737;49.908;8.126;2023-05-10T11:17:47;1.38;;;0.60;;
34491;SDS011;20737;49.908;8.126;2023-05-10T11:20:17;0.50;;;0.50;;
34491;SDS011;20737;49.908;8.126;2023-05-10T11:22:51;0.40;;;0.40;;
34491;SDS011;20737;49.908;8.126;2023-05-10T11:25:19;2.53;;;0.50;;
34491;SDS011;20737;49.908;8.126;2023-05-10T11:27:52;0.40;;;0.40;;
34491;SDS011;20737;49.908;8.126;2023-05-10T11:30:18;0.75;;;0.50;;
34491;SDS011;20737;49.908;8.126;2023-05-10T11:32:45;0.50;;;0.50;;
34491;SDS011;20737;49.908;8.126;2023-05-10T11:35:12;1.58;;;0.68;;
34491;SDS011;20737;49.908;8.126;2023-05-10T11:37:40;1.15;;;0.70;;
34491;SDS011;20737;49.908;8.126;2023-05-10T11:40:10;0.47;;;0.47;;
34491;SDS011;20737;49.908;8.126;2023-05-10T11:42:38;1.95;;;0.60;;
34491;SDS011;20737;49.908;8.126;2023-05-10T11:45:05;0.70;;;0.60;;
34491;SDS011;20737;49.908;8.126;2023-05-10T11:47:33;1.55;;;0.88;;
34491;SDS011;20737;49.908;8.126;2023-05-10T11:50:02;3.35;;;0.60;;
34491;SDS011;20737;49.908;8.126;2023-05-10T11:52:29;1.05;;;0.60;;
34491;SDS011;20737;49.908;8.126;2023-05-10T11:55:02;0.95;;;0.70;;
34491;SDS011;20737;49.908;8.126;2023-05-10T11:57:30;0.95;;;0.60;;
34491;SDS011;20737;49.908;8.126;2023-05-10T11:59:57;0.70;;;0.70;;
34491;SDS011;20737;49.908;8.126;2023-05-10T12:02:24;0.47;;;0.47;;
34491;SDS011;20737;49.908;8.126;2023-05-10T12:04:51;0.80;;;0.80;;
34491;SDS011;20737;49.908;8.126;2023-05-10T12:07:18;1.75;;;0.43;;
34491;SDS011;20737;49.908;8.126;2023-05-10T12:12:38;1.52;;;0.50;;
34491;SDS011;20737;49.908;8.126;2023-05-10T12:15:10;3.60;;;0.60;;
34491;SDS011;20737;49.908;8.126;2023-05-10T12:17:38;0.85;;;0.30;;
34491;SDS011;20737;49.908;8.126;2023-05-10T12:20:18;0.50;;;0.45;;
34491;SDS011;20737;49.908;8.126;2023-05-10T12:22:49;2.00;;;1.02;;
34491;SDS011;20737;49.908;8.126;2023-05-10T12:25:18;0.70;;;0.70;;
34491;SDS011;20737;49.908;8.126;2023-05-10T12:27:50;2.47;;;0.75;;
34491;SDS011;20737;49.908;8.126;2023-05-10T12:30:20;0.95;;;0.95;;
34491;SDS011;20737;49.908;8.126;2023-05-10T12:32:48;1.70;;;0.57;;
34491;SDS011;20737;49.908;8.126;2023-05-10T12:35:15;1.83;;;0.77;;
34491;SDS011;20737;49.908;8.126;2023-05-10T12:37:46;0.73;;;0.60;;
34491;SDS011;20737;49.908;8.126;2023-05-10T12:40:13;1.40;;;0.70;;
34491;SDS011;20737;49.908;8.126;2023-05-10T12:42:40;0.52;;;0.52;;
34491;SDS011;20737;49.908;8.126;2023-05-10T12:45:08;1.63;;;0.80;;
34491;SDS011;20737;49.908;8.126;2023-05-10T12:47:35;0.70;;;0.70;;
34491;SDS011;20737;49.908;8.126;2023-05-10T12:50:03;0.65;;;0.65;;
34491;SDS011;20737;49.908;8.126;2023-05-10T12:52:32;1.27;;;0.70;;
34491;SDS011;20737;49.908;8.126;2023-05-10T12:54:58;1.17;;;0.70;;
34491;SDS011;20737;49.908;8.126;2023-05-10T12:57:26;2.55;;;0.68;;
34491;SDS011;20737;49.908;8.126;2023-05-10T12:59:53;0.80;;;0.80;;
34491;SDS011;20737;49.908;8.126;2023-05-10T13:02:21;0.57;;;0.50;;
34491;SDS011;20737;49.908;8.126;2023-05-10T13:04:48;1.52;;;0.70;;
34491;SDS011;20737;49.908;8.126;2023-05-10T13:07:15;1.27;;;0.70;;
34491;SDS011;20737;49.908;8.126;2023-05-10T13:09:42;0.70;;;0.70;;
34491;SDS011;20737;49.908;8.126;2023-05-10T13:12:09;0.80;;;0.80;;
34491;SDS011;20737;49.908;8.126;2023-05-10T13:14:36;2.08;;;0.70;;
34491;SDS011;20737;49.908;8.126;2023-05-10T13:17:03;0.70;;;0.70;;
34491;SDS011;20737;49.908;8.126;2023-05-10T13:19:31;0.85;;;0.70;;
34491;SDS011;20737;49.908;8.126;2023-05-10T13:21:57;0.60;;;0.60;;
34491;SDS011;20737;49.908;8.126;2023-05-10T13:24:24;0.60;;;0.60;;
34491;SDS011;20737;49.908;8.126;2023-05-10T13:26:51;1.67;;;0.60;;
34491;SDS011;20737;49.908;8.126;2023-05-10T13:29:18;0.60;;;0.60;;
34491;SDS011;20737;49.908;8.126;2023-05-10T13:31:45;3.60;;;0.73;;
34491;SDS011;20737;49.908;8.126;2023-05-10T13:34:12;1.33;;;0.88;;
34491;SDS011;20737;49.908;8.126;2023-05-10T13:36:40;0.60;;;0.60;;
34491;SDS011;20737;49.908;8.126;2023-05-10T13:39:07;4.32;;;0.70;;
34491;SDS011;20737;49.908;8.126;2023-05-10T13:41:34;1.35;;;0.70;;
34491;SDS011;20737;49.908;8.126;2023-05-10T13:44:01;1.30;;;0.80;;
34491;SDS011;20737;49.908;8.126;2023-05-10T13:46:28;1.35;;;0.70;;
34491;SDS011;20737;49.908;8.126;2023-05-10T13:48:55;1.50;;;0.80;;
34491;SDS011;20737;49.908;8.126;2023-05-10T13:51:22;1.98;;;0.90;;
34491;SDS011;20737;49.908;8.126;2023-05-10T13:53:50;1.48;;;0.70;;
34491;SDS011;20737;49.908;8.126;2023-05-10T13:56:17;1.00;;;0.80;;
34491;SDS011;20737;49.908;8.126;2023-05-10T13:58:44;1.13;;;0.90;;
34491;SDS011;20737;49.908;8.126;2023-05-10T14:01:11;1.45;;;1.08;;
34491;SDS011;20737;49.908;8.126;2023-05-10T14:03:38;1.88;;;0.90;;
34491;SDS011;20737;49.908;8.126;2023-05-10T14:06:04;1.17;;;1.08;;
34491;SDS011;20737;49.908;8.126;2023-05-10T14:08:32;1.20;;;1.02;;
34491;SDS011;20737;49.908;8.126;2023-05-10T14:11:03;0.75;;;0.70;;
34491;SDS011;20737;49.908;8.126;2023-05-10T14:13:41;4.43;;;0.73;;
34491;SDS011;20737;49.908;8.126;2023-05-10T14:16:07;1.90;;;0.60;;
34491;SDS011;20737;49.908;8.126;2023-05-10T14:18:39;1.52;;;0.80;;
34491;SDS011;20737;49.908;8.126;2023-05-10T14:21:06;3.22;;;0.98;;
34491;SDS011;20737;49.908;8.126;2023-05-10T14:23:33;0.80;;;0.80;;
34491;SDS011;20737;49.908;8.126;2023-05-10T14:26:00;1.77;;;0.80;;
34491;SDS011;20737;49.908;8.126;2023-05-10T14:28:29;3.88;;;0.93;;
34491;SDS011;20737;49.908;8.126;2023-05-10T14:30:56;1.50;;;0.80;;
34491;SDS011;20737;49.908;8.126;2023-05-10T14:33:23;2.03;;;0.90;;
34491;SDS011;20737;49.908;8.126;2023-05-10T14:35:50;2.97;;;0.90;;
34491;SDS011;20737;49.908;8.126;2023-05-10T14:38:17;1.75;;;0.88;;
34491;SDS011;20737;49.908;8.126;2023-05-10T14:40:44;2.17;;;1.00;;
34491;SDS011;20737;49.908;8.126;2023-05-10T14:43:10;1.52;;;0.80;;
34491;SDS011;20737;49.908;8.126;2023-05-10T14:45:38;4.15;;;1.00;;
34491;SDS011;20737;49.908;8.126;2023-05-10T14:48:06;4.55;;;1.00;;
34491;SDS011;20737;49.908;8.126;2023-05-10T14:50:36;2.17;;;0.70;;
34491;SDS011;20737;49.908;8.126;2023-05-10T14:53:03;2.40;;;1.30;;
34491;SDS011;20737;49.908;8.126;2023-05-10T14:55:30;4.05;;;1.10;;
34491;SDS011;20737;49.908;8.126;2023-05-10T14:57:57;1.00;;;0.90;;
34491;SDS011;20737;49.908;8.126;2023-05-10T15:00:24;1.75;;;0.70;;
34491;SDS011;20737;49.908;8.126;2023-05-10T15:02:55;1.52;;;1.00;;
34491;SDS011;20737;49.908;8.126;2023-05-10T15:05:22;2.60;;;1.10;;